createdAt,value
2022-08-20T00:00:09.148Z,976.64
2022-08-20T00:01:09.397Z,976.55
2022-08-20T00:02:09.275Z,976.59
2022-08-20T00:03:09.073Z,976.61
2022-08-20T00:04:09.174Z,976.59
2022-08-20T00:05:09.153Z,976.56
2022-08-20T00:06:09.154Z,976.63
2022-08-20T00:07:09.012Z,976.68
2022-08-20T00:08:09.153Z,976.67
2022-08-20T00:09:08.994Z,976.71
2022-08-20T00:10:09.154Z,976.73
2022-08-20T00:11:09.063Z,976.74
2022-08-20T00:12:09.153Z,976.81
2022-08-20T00:13:09.018Z,976.77
2022-08-20T00:14:08.918Z,976.84
2022-08-20T00:15:08.998Z,976.91
2022-08-20T00:16:08.961Z,976.87
2022-08-20T00:17:09.030Z,976.91
2022-08-20T00:18:08.889Z,976.91
2022-08-20T00:19:08.870Z,976.98
2022-08-20T00:20:08.857Z,976.96
2022-08-20T00:21:09.093Z,977.02
2022-08-20T00:22:08.827Z,977.02
2022-08-20T00:23:10.624Z,977.00
2022-08-20T00:24:08.861Z,977.04
2022-08-20T00:25:09.003Z,977.08
2022-08-20T00:26:08.851Z,977.09
2022-08-20T00:27:08.814Z,977.18
2022-08-20T00:28:08.863Z,977.16
2022-08-20T00:29:08.733Z,977.13
2022-08-20T00:30:08.850Z,977.09
2022-08-20T00:31:08.721Z,977.13
2022-08-20T00:32:08.932Z,977.09
2022-08-20T00:33:08.677Z,977.06
2022-08-20T00:34:08.832Z,977.07
2022-08-20T00:35:08.677Z,977.07
2022-08-20T00:36:08.638Z,977.02
2022-08-20T00:37:08.689Z,977.05
2022-08-20T00:38:08.677Z,977.01
2022-08-20T00:39:08.678Z,977.05
2022-08-20T00:40:22.551Z,977.00
2022-08-20T00:41:08.697Z,977.00
2022-08-20T00:42:08.538Z,977.00
2022-08-20T00:43:08.688Z,977.01
2022-08-20T00:44:08.517Z,977.05
2022-08-20T00:45:08.703Z,977.02
2022-08-20T00:46:08.530Z,977.03
2022-08-20T00:47:08.509Z,977.05
2022-08-20T00:48:08.522Z,977.01
2022-08-20T00:49:08.532Z,976.99
2022-08-20T00:50:08.533Z,977.06
2022-08-20T00:51:08.424Z,977.05
2022-08-20T00:52:08.531Z,977.07
2022-08-20T00:53:08.412Z,977.05
2022-08-20T00:54:08.542Z,977.04
2022-08-20T00:55:08.427Z,977.08
2022-08-20T00:56:08.527Z,977.08
2022-08-20T00:57:08.400Z,977.08
2022-08-20T00:58:08.731Z,977.08
2022-08-20T00:59:08.377Z,977.08
2022-08-20T01:00:08.537Z,977.07
2022-08-20T01:01:08.370Z,977.07
2022-08-20T01:02:08.573Z,977.02
2022-08-20T01:03:08.358Z,977.04
2022-08-20T01:04:08.290Z,977.01
2022-08-20T01:05:08.438Z,977.01
2022-08-20T01:06:08.529Z,976.97
2022-08-20T01:07:08.229Z,977.00
2022-08-20T01:08:08.223Z,976.96
2022-08-20T01:09:08.182Z,976.97
2022-08-20T01:10:08.252Z,976.98
2022-08-20T01:11:08.183Z,976.99
2022-08-20T01:12:08.223Z,977.00
2022-08-20T01:13:08.369Z,977.02
2022-08-20T01:14:08.192Z,977.00
2022-08-20T01:15:08.099Z,976.92
2022-08-20T01:16:08.262Z,976.95
2022-08-20T01:17:08.352Z,976.96
2022-08-20T01:18:08.188Z,976.94
2022-08-20T01:19:30.072Z,976.95
2022-08-20T01:20:08.219Z,977.00
2022-08-20T01:21:08.117Z,976.99
2022-08-20T01:22:08.030Z,976.95
2022-08-20T01:23:08.028Z,976.91
2022-08-20T01:24:08.198Z,976.87
2022-08-20T01:25:08.039Z,976.85
2022-08-20T01:26:08.017Z,976.88
2022-08-20T01:27:07.959Z,976.88
2022-08-20T01:28:08.189Z,976.86
2022-08-20T01:29:08.049Z,976.85
2022-08-20T01:30:07.914Z,976.87
2022-08-20T01:31:08.032Z,976.86
2022-08-20T01:32:07.944Z,976.83
2022-08-20T01:33:08.050Z,976.82
2022-08-20T01:34:07.894Z,976.76
2022-08-20T01:35:08.050Z,976.78
2022-08-20T01:36:07.873Z,976.81
2022-08-20T01:37:08.102Z,976.85
2022-08-20T01:38:07.889Z,976.83
2022-08-20T01:39:08.053Z,976.86
2022-08-20T01:40:09.358Z,976.88
2022-08-20T01:41:07.790Z,976.88
2022-08-20T01:42:07.947Z,976.88
2022-08-20T01:43:08.070Z,976.89
2022-08-20T01:44:08.651Z,976.84
2022-08-20T01:45:07.718Z,976.85
2022-08-20T01:46:07.697Z,976.82
2022-08-20T01:47:07.776Z,976.83
2022-08-20T01:48:07.897Z,976.79
2022-08-20T01:49:13.599Z,976.78
2022-08-20T01:50:07.891Z,976.80
2022-08-20T01:51:07.742Z,976.78
2022-08-20T01:52:07.629Z,976.70
2022-08-20T01:53:07.809Z,976.76
2022-08-20T01:54:07.889Z,976.77
2022-08-20T01:55:07.572Z,976.76
2022-08-20T01:56:07.571Z,976.73
2022-08-20T01:57:07.713Z,976.77
2022-08-20T01:58:07.633Z,976.69
2022-08-20T01:59:07.729Z,976.68
2022-08-20T02:00:07.570Z,976.71
2022-08-20T02:01:07.527Z,976.68
2022-08-20T02:02:07.467Z,976.70
2022-08-20T02:03:07.490Z,976.73
2022-08-20T02:04:07.672Z,976.81
2022-08-20T02:05:07.710Z,976.69
2022-08-20T02:06:07.568Z,976.69
2022-08-20T02:07:07.472Z,976.75
2022-08-20T02:08:07.576Z,976.72
2022-08-20T02:09:07.417Z,976.75
2022-08-20T02:10:07.577Z,976.72
2022-08-20T02:11:07.409Z,976.74
2022-08-20T02:12:07.362Z,976.75
2022-08-20T02:13:07.412Z,976.67
2022-08-20T02:14:07.343Z,976.69
2022-08-20T02:15:07.469Z,976.70
2022-08-20T02:16:07.553Z,976.59
2022-08-20T02:17:07.402Z,976.59
2022-08-20T02:18:08.205Z,976.59
2022-08-20T02:19:07.413Z,976.55
2022-08-20T02:20:07.244Z,976.60
2022-08-20T02:21:07.413Z,976.55
2022-08-20T02:22:07.234Z,976.61
2022-08-20T02:23:07.417Z,976.64
2022-08-20T02:24:07.257Z,976.57
2022-08-20T02:25:07.417Z,976.62
2022-08-20T02:26:07.330Z,976.53
2022-08-20T02:27:07.149Z,976.52
2022-08-20T02:28:07.257Z,976.57
2022-08-20T02:29:07.117Z,976.54
2022-08-20T02:30:07.257Z,976.57
2022-08-20T02:31:07.204Z,976.55
2022-08-20T02:32:32.435Z,976.52
2022-08-20T02:33:07.174Z,976.46
2022-08-20T02:34:22.013Z,976.56
2022-08-20T02:35:07.092Z,976.59
2022-08-20T02:36:07.033Z,976.56
2022-08-20T02:37:07.215Z,976.54
2022-08-20T02:38:07.253Z,976.57
2022-08-20T02:39:06.992Z,976.57
2022-08-20T02:40:07.055Z,976.56
2022-08-20T02:41:07.073Z,976.53
2022-08-20T02:42:07.243Z,976.57
2022-08-20T02:43:07.003Z,976.57
2022-08-20T02:44:06.932Z,976.60
2022-08-20T02:45:06.902Z,976.51
2022-08-20T02:46:06.950Z,976.56
2022-08-20T02:47:07.098Z,976.55
2022-08-20T02:48:07.033Z,976.53
2022-08-20T02:49:07.088Z,976.51
2022-08-20T02:50:06.958Z,976.48
2022-08-20T02:51:06.850Z,976.50
2022-08-20T02:52:06.918Z,976.51
2022-08-20T02:53:06.787Z,976.50
2022-08-20T02:54:06.890Z,976.49
2022-08-20T02:55:06.778Z,976.47
2022-08-20T02:56:06.768Z,976.44
2022-08-20T02:57:06.773Z,976.36
2022-08-20T02:58:06.902Z,976.38
2022-08-20T02:59:06.773Z,976.33
2022-08-20T03:00:06.773Z,976.30
2022-08-20T03:01:06.826Z,976.29
2022-08-20T03:02:06.681Z,976.29
2022-08-20T03:03:06.770Z,976.29
2022-08-20T03:04:06.912Z,976.29
2022-08-20T03:05:06.862Z,976.35
2022-08-20T03:06:06.662Z,976.28
2022-08-20T03:07:06.605Z,976.33
2022-08-20T03:08:06.631Z,976.35
2022-08-20T03:09:06.778Z,976.33
2022-08-20T03:10:06.687Z,976.29
2022-08-20T03:11:06.778Z,976.30
2022-08-20T03:12:06.608Z,976.28
2022-08-20T03:13:06.751Z,976.36
2022-08-20T03:14:06.607Z,976.27
2022-08-20T03:15:06.509Z,976.29
2022-08-20T03:16:06.660Z,976.35
2022-08-20T03:17:06.498Z,976.39
2022-08-20T03:18:06.610Z,976.38
2022-08-20T03:19:06.772Z,976.33
2022-08-20T03:20:06.613Z,976.35
2022-08-20T03:21:06.542Z,976.38
2022-08-20T03:22:06.612Z,976.40
2022-08-20T03:23:06.432Z,976.38
2022-08-20T03:24:06.602Z,976.40
2022-08-20T03:25:06.448Z,976.39
2022-08-20T03:26:06.372Z,976.41
2022-08-20T03:27:06.410Z,976.41
2022-08-20T03:28:06.332Z,976.39
2022-08-20T03:29:06.452Z,976.35
2022-08-20T03:30:06.330Z,976.43
2022-08-20T03:31:06.438Z,976.39
2022-08-20T03:32:07.872Z,976.43
2022-08-20T03:33:06.278Z,976.41
2022-08-20T03:34:06.301Z,976.43
2022-08-20T03:35:06.449Z,976.39
2022-08-20T03:36:06.297Z,976.42
2022-08-20T03:37:06.447Z,976.45
2022-08-20T03:38:06.348Z,976.50
2022-08-20T03:39:06.199Z,976.46
2022-08-20T03:40:06.319Z,976.46
2022-08-20T03:41:06.184Z,976.54
2022-08-20T03:42:06.293Z,976.49
2022-08-20T03:43:06.229Z,976.55
2022-08-20T03:44:06.295Z,976.59
2022-08-20T03:45:06.129Z,976.60
2022-08-20T03:46:06.123Z,976.65
2022-08-20T03:47:06.112Z,976.68
2022-08-20T03:48:06.170Z,976.66
2022-08-20T03:49:06.053Z,976.67
2022-08-20T03:50:06.050Z,976.68
2022-08-20T03:51:06.113Z,976.72
2022-08-20T03:52:06.292Z,976.73
2022-08-20T03:53:06.029Z,976.73
2022-08-20T03:54:06.058Z,976.73
2022-08-20T03:55:06.118Z,976.73
2022-08-20T03:56:05.968Z,976.73
2022-08-20T03:57:12.429Z,976.80
2022-08-20T03:58:05.978Z,976.72
2022-08-20T03:59:05.978Z,976.72
2022-08-20T04:00:05.977Z,976.71
2022-08-20T04:01:06.000Z,976.74
2022-08-20T04:02:06.012Z,976.75
2022-08-20T04:03:06.108Z,976.72
2022-08-20T04:04:06.043Z,976.73
2022-08-20T04:05:06.133Z,976.81
2022-08-20T04:06:05.982Z,976.82
2022-08-20T04:07:05.813Z,976.80
2022-08-20T04:08:05.973Z,976.86
2022-08-20T04:09:05.810Z,976.88
2022-08-20T04:10:06.022Z,976.93
2022-08-20T04:11:05.812Z,976.95
2022-08-20T04:12:05.963Z,976.88
2022-08-20T04:13:05.794Z,976.92
2022-08-20T04:14:05.749Z,977.02
2022-08-20T04:15:05.878Z,976.97
2022-08-20T04:16:05.978Z,977.02
2022-08-20T04:17:05.799Z,977.04
2022-08-20T04:18:05.688Z,977.06
2022-08-20T04:19:05.850Z,977.08
2022-08-20T04:20:05.647Z,977.07
2022-08-20T04:21:05.868Z,977.09
2022-08-20T04:22:05.658Z,977.08
2022-08-20T04:23:05.608Z,977.11
2022-08-20T04:24:05.657Z,977.12
2022-08-20T04:25:05.589Z,977.16
2022-08-20T04:26:05.713Z,977.18
2022-08-20T04:27:05.817Z,977.11
2022-08-20T04:28:05.646Z,977.13
2022-08-20T04:29:05.814Z,977.11
2022-08-20T04:30:05.653Z,977.10
2022-08-20T04:31:05.610Z,977.11
2022-08-20T04:32:06.015Z,977.11
2022-08-20T04:33:05.493Z,977.06
2022-08-20T04:34:05.463Z,977.15
2022-08-20T04:35:05.490Z,977.10
2022-08-20T04:36:05.425Z,977.07
2022-08-20T04:37:05.565Z,977.11
2022-08-20T04:38:05.658Z,977.12
2022-08-20T04:39:05.498Z,977.14
2022-08-20T04:40:05.449Z,977.11
2022-08-20T04:41:05.507Z,977.12
2022-08-20T04:42:05.447Z,977.08
2022-08-20T04:43:05.496Z,977.09
2022-08-20T04:44:05.338Z,977.06
2022-08-20T04:45:05.310Z,977.11
2022-08-20T04:46:05.318Z,977.07
2022-08-20T04:47:05.558Z,977.13
2022-08-20T04:48:05.345Z,977.11
2022-08-20T04:49:05.273Z,977.10
2022-08-20T04:50:05.343Z,977.15
2022-08-20T04:51:05.242Z,977.13
2022-08-20T04:52:05.323Z,977.13
2022-08-20T04:53:05.273Z,977.18
2022-08-20T04:54:05.323Z,977.13
2022-08-20T04:55:05.182Z,977.17
2022-08-20T04:56:05.152Z,977.16
2022-08-20T04:57:05.166Z,977.20
2022-08-20T04:58:05.143Z,977.24
2022-08-20T04:59:05.239Z,977.21
2022-08-20T05:00:05.348Z,977.22
2022-08-20T05:01:05.285Z,977.28
2022-08-20T05:02:05.328Z,977.25
2022-08-20T05:03:05.170Z,977.25
2022-08-20T05:04:05.117Z,977.28
2022-08-20T05:05:05.167Z,977.23
2022-08-20T05:06:05.018Z,977.23
2022-08-20T05:07:05.008Z,977.22
2022-08-20T05:08:05.007Z,977.23
2022-08-20T05:09:05.183Z,977.24
2022-08-20T05:10:05.003Z,977.24
2022-08-20T05:11:32.949Z,977.26
2022-08-20T05:12:05.003Z,977.26
2022-08-20T05:13:04.943Z,977.32
2022-08-20T05:14:05.096Z,977.31
2022-08-20T05:15:04.906Z,977.27
2022-08-20T05:16:05.002Z,977.26
2022-08-20T05:17:05.163Z,977.28
2022-08-20T05:18:05.014Z,977.27
2022-08-20T05:19:04.923Z,977.22
2022-08-20T05:20:05.038Z,977.21
2022-08-20T05:21:04.867Z,977.25
2022-08-20T05:22:04.832Z,977.25
2022-08-20T05:23:04.859Z,977.20
2022-08-20T05:24:05.040Z,977.29
2022-08-20T05:25:04.938Z,977.23
2022-08-20T05:26:04.998Z,977.23
2022-08-20T05:27:04.849Z,977.23
2022-08-20T05:28:04.739Z,977.26
2022-08-20T05:29:04.882Z,977.30
2022-08-20T05:30:04.699Z,977.27
2022-08-20T05:31:04.934Z,977.19
2022-08-20T05:32:04.698Z,977.23
2022-08-20T05:33:04.852Z,977.21
2022-08-20T05:34:04.686Z,977.28
2022-08-20T05:35:04.846Z,977.27
2022-08-20T05:36:04.743Z,977.29
2022-08-20T05:37:04.848Z,977.30
2022-08-20T05:38:04.684Z,977.26
2022-08-20T05:39:04.842Z,977.23
2022-08-20T05:40:04.720Z,977.25
2022-08-20T05:41:04.617Z,977.23
2022-08-20T05:42:04.688Z,977.25
2022-08-20T05:43:04.537Z,977.22
2022-08-20T05:44:04.697Z,977.14
2022-08-20T05:45:04.528Z,977.18
2022-08-20T05:46:04.697Z,977.16
2022-08-20T05:47:04.637Z,977.22
2022-08-20T05:48:04.690Z,977.20
2022-08-20T05:49:04.536Z,977.20
2022-08-20T05:50:04.438Z,977.20
2022-08-20T05:51:04.519Z,977.27
2022-08-20T05:52:04.505Z,977.22
2022-08-20T05:53:04.524Z,977.26
2022-08-20T05:54:04.703Z,977.31
2022-08-20T05:55:04.393Z,977.29
2022-08-20T05:56:04.373Z,977.29
2022-08-20T05:57:04.533Z,977.33
2022-08-20T05:58:04.448Z,977.40
2022-08-20T05:59:04.541Z,977.40
2022-08-20T06:00:04.414Z,977.46
2022-08-20T06:01:04.365Z,977.53
2022-08-20T06:02:04.373Z,977.55
2022-08-20T06:03:04.311Z,977.52
2022-08-20T06:04:04.459Z,977.49
2022-08-20T06:05:04.248Z,977.49
2022-08-20T06:06:04.367Z,977.51
2022-08-20T06:07:04.237Z,977.49
2022-08-20T06:08:07.624Z,977.49
2022-08-20T06:09:04.557Z,977.54
2022-08-20T06:10:04.178Z,977.57
2022-08-20T06:11:04.208Z,977.54
2022-08-20T06:12:04.166Z,977.52
2022-08-20T06:13:04.214Z,977.55
2022-08-20T06:14:04.372Z,977.56
2022-08-20T06:15:04.294Z,977.56
2022-08-20T06:16:06.935Z,977.56
2022-08-20T06:17:04.093Z,977.49
2022-08-20T06:18:07.183Z,977.53
2022-08-20T06:19:04.203Z,977.45
2022-08-20T06:20:04.114Z,977.47
2022-08-20T06:21:04.042Z,977.47
2022-08-20T06:22:08.615Z,977.52
2022-08-20T06:23:04.034Z,977.49
2022-08-20T06:24:04.060Z,977.57
2022-08-20T06:25:04.058Z,977.54
2022-08-20T06:26:04.048Z,977.65
2022-08-20T06:27:04.217Z,977.60
2022-08-20T06:28:04.048Z,977.61
2022-08-20T06:29:04.228Z,977.59
2022-08-20T06:30:04.118Z,977.57
2022-08-20T06:31:04.198Z,977.67
2022-08-20T06:32:03.898Z,977.63
2022-08-20T06:33:03.888Z,977.67
2022-08-20T06:34:03.883Z,977.74
2022-08-20T06:35:04.007Z,977.72
2022-08-20T06:36:04.134Z,977.74
2022-08-20T06:37:03.894Z,977.80
2022-08-20T06:38:04.063Z,977.81
2022-08-20T06:39:03.885Z,977.87
2022-08-20T06:40:03.932Z,977.87
2022-08-20T06:41:03.842Z,977.86
2022-08-20T06:42:03.763Z,977.92
2022-08-20T06:43:03.883Z,977.97
2022-08-20T06:44:03.742Z,977.92
2022-08-20T06:45:03.737Z,977.98
2022-08-20T06:46:03.748Z,978.03
2022-08-20T06:47:04.093Z,978.01
2022-08-20T06:48:03.728Z,978.04
2022-08-20T06:49:03.679Z,978.07
2022-08-20T06:50:03.727Z,978.06
2022-08-20T06:51:03.888Z,978.12
2022-08-20T06:52:03.797Z,978.07
2022-08-20T06:53:03.634Z,978.15
2022-08-20T06:54:03.729Z,978.21
2022-08-20T06:55:03.623Z,978.19
2022-08-20T06:56:03.583Z,978.16
2022-08-20T06:57:03.583Z,978.21
2022-08-20T06:58:03.814Z,978.22
2022-08-20T06:59:03.583Z,978.22
2022-08-20T07:00:03.732Z,978.22
2022-08-20T07:01:10.221Z,978.24
2022-08-20T07:02:03.723Z,978.26
2022-08-20T07:03:03.565Z,978.24
2022-08-20T07:04:03.544Z,978.24
2022-08-20T07:05:03.577Z,978.31
2022-08-20T07:06:03.457Z,978.32
2022-08-20T07:07:03.578Z,978.34
2022-08-20T07:08:03.439Z,978.33
2022-08-20T07:09:03.479Z,978.36
2022-08-20T07:10:03.398Z,978.36
2022-08-20T07:11:03.388Z,978.34
2022-08-20T07:12:03.465Z,978.37
2022-08-20T07:13:03.558Z,978.35
2022-08-20T07:14:03.457Z,978.35
2022-08-20T07:15:03.578Z,978.39
2022-08-20T07:16:03.413Z,978.32
2022-08-20T07:17:03.313Z,978.34
2022-08-20T07:18:03.402Z,978.27
2022-08-20T07:19:03.322Z,978.34
2022-08-20T07:20:03.403Z,978.36
2022-08-20T07:21:03.249Z,978.31
2022-08-20T07:22:03.242Z,978.34
2022-08-20T07:23:03.242Z,978.29
2022-08-20T07:24:03.473Z,978.37
2022-08-20T07:25:03.242Z,978.30
2022-08-20T07:26:03.197Z,978.35
2022-08-20T07:27:03.267Z,978.34
2022-08-20T07:28:03.418Z,978.36
2022-08-20T07:29:03.269Z,978.35
2022-08-20T07:30:03.499Z,978.35
2022-08-20T07:31:12.275Z,978.40
2022-08-20T07:32:03.182Z,978.39
2022-08-20T07:33:03.272Z,978.43
2022-08-20T07:34:03.279Z,978.45
2022-08-20T07:35:03.078Z,978.46
2022-08-20T07:36:03.158Z,978.49
2022-08-20T07:37:03.253Z,978.45
2022-08-20T07:38:03.092Z,978.39
2022-08-20T07:39:06.093Z,978.50
2022-08-20T07:40:03.168Z,978.44
2022-08-20T07:41:03.243Z,978.46
2022-08-20T07:42:03.274Z,978.46
2022-08-20T07:43:02.973Z,978.44
2022-08-20T07:44:03.110Z,978.42
2022-08-20T07:45:03.243Z,978.38
2022-08-20T07:46:03.086Z,978.44
2022-08-20T07:47:03.026Z,978.47
2022-08-20T07:48:03.088Z,978.46
2022-08-20T07:49:02.937Z,978.49
2022-08-20T07:50:02.877Z,978.43
2022-08-20T07:51:02.943Z,978.48
2022-08-20T07:52:03.148Z,978.51
2022-08-20T07:53:02.927Z,978.46
2022-08-20T07:54:02.817Z,978.55
2022-08-20T07:55:02.978Z,978.54
2022-08-20T07:56:03.088Z,978.54
2022-08-20T07:57:02.855Z,978.53
2022-08-20T07:58:02.772Z,978.54
2022-08-20T07:59:02.932Z,978.52
2022-08-20T08:00:02.807Z,978.50
2022-08-20T08:01:02.795Z,978.50
2022-08-20T08:02:02.849Z,978.48
2022-08-20T08:03:02.713Z,978.52
2022-08-20T08:04:02.775Z,978.53
2022-08-20T08:05:02.692Z,978.52
2022-08-20T08:06:02.752Z,978.49
2022-08-20T08:07:02.703Z,978.47
2022-08-20T08:08:05.722Z,978.56
2022-08-20T08:09:02.668Z,978.44
2022-08-20T08:10:02.617Z,978.43
2022-08-20T08:11:02.627Z,978.47
2022-08-20T08:12:02.589Z,978.45
2022-08-20T08:13:02.700Z,978.47
2022-08-20T08:14:02.547Z,978.50
2022-08-20T08:15:02.631Z,978.49
2022-08-20T08:16:02.518Z,978.49
2022-08-20T08:17:02.520Z,978.52
2022-08-20T08:18:02.763Z,978.54
2022-08-20T08:19:02.683Z,978.50
2022-08-20T08:20:02.484Z,978.50
2022-08-20T08:21:02.603Z,978.58
2022-08-20T08:22:02.454Z,978.54
2022-08-20T08:23:02.453Z,978.62
2022-08-20T08:24:02.549Z,978.65
2022-08-20T08:25:02.608Z,978.62
2022-08-20T08:26:02.454Z,978.63
2022-08-20T08:27:02.386Z,978.64
2022-08-20T08:28:02.453Z,978.63
2022-08-20T08:29:02.651Z,978.65
2022-08-20T08:30:02.530Z,978.64
2022-08-20T08:31:02.339Z,978.59
2022-08-20T08:32:02.460Z,978.66
2022-08-20T08:33:02.298Z,978.64
2022-08-20T08:34:02.375Z,978.66
2022-08-20T08:35:02.279Z,978.63
2022-08-20T08:36:02.439Z,978.62
2022-08-20T08:37:02.278Z,978.62
2022-08-20T08:38:02.228Z,978.58
2022-08-20T08:39:02.374Z,978.58
2022-08-20T08:40:02.494Z,978.57
2022-08-20T08:41:02.272Z,978.56
2022-08-20T08:42:02.186Z,978.63
2022-08-20T08:43:02.163Z,978.63
2022-08-20T08:44:02.156Z,978.57
2022-08-20T08:45:02.203Z,978.66
2022-08-20T08:46:02.123Z,978.68
2022-08-20T08:47:02.103Z,978.66
2022-08-20T08:48:02.139Z,978.64
2022-08-20T08:49:02.344Z,978.71
2022-08-20T08:50:02.127Z,978.66
2022-08-20T08:51:02.288Z,978.72
2022-08-20T08:52:02.137Z,978.61
2022-08-20T08:53:02.301Z,978.66
2022-08-20T08:54:06.623Z,978.66
2022-08-20T08:55:02.291Z,978.66
2022-08-20T08:56:02.137Z,978.65
2022-08-20T08:57:01.968Z,978.66
2022-08-20T08:58:04.267Z,978.68
2022-08-20T08:59:02.032Z,978.72
2022-08-20T09:00:03.913Z,978.72
2022-08-20T09:01:05.784Z,978.66
2022-08-20T09:02:02.259Z,978.71
2022-08-20T09:03:02.104Z,978.64
2022-08-20T09:04:01.963Z,978.71
2022-08-20T09:05:01.991Z,978.74
2022-08-20T09:06:01.852Z,978.74
2022-08-20T09:07:01.964Z,978.79
2022-08-20T09:08:01.823Z,978.79
2022-08-20T09:09:01.864Z,978.77
2022-08-20T09:10:01.830Z,978.74
2022-08-20T09:11:01.978Z,978.76
2022-08-20T09:12:01.828Z,978.75
2022-08-20T09:13:01.978Z,978.76
2022-08-20T09:14:01.878Z,978.79
2022-08-20T09:15:01.995Z,978.79
2022-08-20T09:16:01.709Z,978.76
2022-08-20T09:17:01.697Z,978.78
2022-08-20T09:18:01.830Z,978.80
2022-08-20T09:19:01.758Z,978.79
2022-08-20T09:20:01.829Z,978.82
2022-08-20T09:21:01.692Z,978.74
2022-08-20T09:22:01.813Z,978.82
2022-08-20T09:23:01.674Z,978.76
2022-08-20T09:24:01.903Z,978.76
2022-08-20T09:25:01.653Z,978.78
2022-08-20T09:26:01.592Z,978.82
2022-08-20T09:27:01.584Z,978.82
2022-08-20T09:28:01.569Z,978.85
2022-08-20T09:29:01.722Z,978.88
2022-08-20T09:30:01.538Z,978.85
2022-08-20T09:31:01.644Z,978.88
2022-08-20T09:32:01.531Z,978.87
2022-08-20T09:33:01.657Z,978.88
2022-08-20T09:34:01.610Z,978.96
2022-08-20T09:35:01.479Z,978.89
2022-08-20T09:36:01.505Z,978.94
2022-08-20T09:37:01.663Z,978.93
2022-08-20T09:38:01.498Z,978.99
2022-08-20T09:39:02.632Z,978.97
2022-08-20T09:40:01.555Z,978.96
2022-08-20T09:41:01.670Z,978.96
2022-08-20T09:42:01.403Z,978.98
2022-08-20T09:43:01.447Z,978.95
2022-08-20T09:44:01.512Z,979.00
2022-08-20T09:45:01.353Z,979.01
2022-08-20T09:46:01.361Z,979.03
2022-08-20T09:47:01.343Z,979.04
2022-08-20T09:48:01.584Z,979.05
2022-08-20T09:49:01.342Z,979.06
2022-08-20T09:50:01.513Z,979.09
2022-08-20T09:51:01.323Z,979.08
2022-08-20T09:52:01.270Z,979.08
2022-08-20T09:53:01.409Z,979.11
2022-08-20T09:54:01.242Z,979.05
2022-08-20T09:55:01.327Z,979.10
2022-08-20T09:56:01.218Z,979.08
2022-08-20T09:57:01.350Z,979.08
2022-08-20T09:58:01.248Z,979.07
2022-08-20T09:59:03.041Z,979.02
2022-08-20T10:00:01.148Z,979.03
2022-08-20T10:01:01.137Z,979.06
2022-08-20T10:02:01.225Z,979.04
2022-08-20T10:03:01.431Z,979.04
2022-08-20T10:04:01.188Z,979.05
2022-08-20T10:05:01.093Z,978.99
2022-08-20T10:06:01.183Z,979.04
2022-08-20T10:07:01.082Z,979.05
2022-08-20T10:08:01.243Z,978.97
2022-08-20T10:09:01.034Z,979.07
2022-08-20T10:10:01.023Z,979.02
2022-08-20T10:11:01.023Z,978.99
2022-08-20T10:12:01.183Z,979.00
2022-08-20T10:13:01.085Z,979.07
2022-08-20T10:14:00.981Z,979.03
2022-08-20T10:15:00.958Z,978.97
2022-08-20T10:16:01.184Z,979.02
2022-08-20T10:17:01.007Z,979.06
2022-08-20T10:18:01.257Z,979.03
2022-08-20T10:19:01.029Z,979.02
2022-08-20T10:20:01.169Z,979.02
2022-08-20T10:21:01.022Z,979.04
2022-08-20T10:22:00.898Z,979.06
2022-08-20T10:23:01.098Z,979.05
2022-08-20T10:24:00.870Z,979.00
2022-08-20T10:25:01.022Z,979.08
2022-08-20T10:26:00.853Z,979.07
2022-08-20T10:27:01.013Z,979.10
2022-08-20T10:28:00.943Z,979.10
2022-08-20T10:29:01.031Z,979.07
2022-08-20T10:30:00.852Z,979.09
2022-08-20T10:31:01.014Z,979.12
2022-08-20T10:32:00.862Z,979.07
2022-08-20T10:33:00.802Z,979.09
2022-08-20T10:34:00.723Z,979.11
2022-08-20T10:35:00.708Z,979.10
2022-08-20T10:36:00.870Z,979.04
2022-08-20T10:37:00.688Z,979.01
2022-08-20T10:38:00.728Z,979.06
2022-08-20T10:39:00.709Z,979.06
2022-08-20T10:40:00.692Z,979.07
2022-08-20T10:41:00.710Z,978.96
2022-08-20T10:42:00.642Z,979.00
2022-08-20T10:43:00.777Z,979.03
2022-08-20T10:44:00.582Z,979.04
2022-08-20T10:45:00.693Z,979.05
2022-08-20T10:46:00.870Z,979.08
2022-08-20T10:47:00.713Z,979.15
2022-08-20T10:48:00.602Z,979.12
2022-08-20T10:49:00.692Z,979.12
2022-08-20T10:50:00.542Z,979.11
2022-08-20T10:51:00.502Z,979.08
2022-08-20T10:52:00.549Z,979.10
2022-08-20T10:53:00.532Z,979.07
2022-08-20T10:54:00.549Z,979.20
2022-08-20T10:55:00.434Z,979.15
2022-08-20T10:56:00.538Z,979.18
2022-08-20T10:57:00.408Z,979.24
2022-08-20T10:58:00.548Z,979.20
2022-08-20T10:59:00.409Z,979.20
2022-08-20T11:00:00.357Z,979.19
2022-08-20T11:01:00.388Z,979.12
2022-08-20T11:02:00.448Z,979.18
2022-08-20T11:03:00.390Z,979.19
2022-08-20T11:04:00.367Z,979.18
2022-08-20T11:05:00.353Z,979.17
2022-08-20T11:06:00.303Z,979.18
2022-08-20T11:07:00.384Z,979.17
2022-08-20T11:08:00.374Z,979.15
2022-08-20T11:09:00.407Z,979.19
2022-08-20T11:10:00.283Z,979.25
2022-08-20T11:11:00.432Z,979.24
2022-08-20T11:12:00.202Z,979.19
2022-08-20T11:13:00.446Z,979.21
2022-08-20T11:14:00.222Z,979.22
2022-08-20T11:15:00.535Z,979.26
2022-08-20T11:16:00.169Z,979.26
2022-08-20T11:17:00.390Z,979.23
2022-08-20T11:18:00.238Z,979.32
2022-08-20T11:19:00.187Z,979.30
2022-08-20T11:20:00.275Z,979.23
2022-08-20T11:21:00.190Z,979.28
2022-08-20T11:22:00.084Z,979.25
2022-08-20T11:23:00.097Z,979.21
2022-08-20T11:24:02.889Z,979.20
2022-08-20T11:25:00.069Z,979.22
2022-08-20T11:26:00.143Z,979.20
2022-08-20T11:27:00.054Z,979.09
2022-08-20T11:28:00.229Z,979.14
2022-08-20T11:28:59.973Z,979.12
2022-08-20T11:30:00.224Z,979.09
2022-08-20T11:30:59.991Z,979.06
2022-08-20T11:32:00.014Z,979.08
2022-08-20T11:33:00.070Z,979.03
2022-08-20T11:33:59.944Z,979.07
2022-08-20T11:34:59.914Z,979.10
2022-08-20T11:35:59.890Z,979.07
2022-08-20T11:36:59.929Z,979.08
2022-08-20T11:37:59.910Z,979.10
2022-08-20T11:39:00.077Z,979.09
2022-08-20T11:39:59.971Z,979.11
2022-08-20T11:40:59.822Z,979.09
2022-08-20T11:41:59.897Z,979.08
2022-08-20T11:43:16.619Z,979.09
2022-08-20T11:44:21.232Z,979.06
2022-08-20T11:45:00.040Z,979.13
2022-08-20T11:45:59.744Z,979.05
2022-08-20T11:46:59.823Z,979.08
2022-08-20T11:47:59.753Z,979.02
2022-08-20T11:48:59.790Z,978.94
2022-08-20T11:49:59.892Z,978.95
2022-08-20T11:50:59.802Z,978.95
2022-08-20T11:51:59.762Z,978.94
2022-08-20T11:53:01.486Z,978.95
2022-08-20T11:53:59.650Z,978.95
2022-08-20T11:54:59.791Z,978.91
2022-08-20T11:55:59.968Z,978.89
2022-08-20T11:56:59.750Z,978.93
2022-08-20T11:58:00.713Z,978.90
2022-08-20T11:58:59.757Z,978.95
2022-08-20T11:59:59.557Z,978.98
2022-08-20T12:00:59.679Z,978.98
2022-08-20T12:02:03.240Z,978.95
2022-08-20T12:02:59.983Z,979.02
2022-08-20T12:03:59.598Z,979.07
2022-08-20T12:04:59.517Z,978.97
2022-08-20T12:05:59.690Z,978.94
2022-08-20T12:07:00.622Z,978.93
2022-08-20T12:07:59.603Z,978.95
2022-08-20T12:08:59.761Z,979.05
2022-08-20T12:09:59.429Z,979.04
2022-08-20T12:10:59.526Z,979.03
2022-08-20T12:11:59.414Z,978.97
2022-08-20T12:12:59.760Z,978.95
2022-08-20T12:13:59.378Z,979.06
2022-08-20T12:14:59.413Z,979.07
2022-08-20T12:15:59.577Z,979.06
2022-08-20T12:16:59.478Z,979.08
2022-08-20T12:17:59.582Z,979.13
2022-08-20T12:18:59.408Z,979.11
2022-08-20T12:19:59.329Z,979.12
2022-08-20T12:20:59.290Z,979.16
2022-08-20T12:21:59.327Z,979.17
2022-08-20T12:22:59.442Z,979.12
2022-08-20T12:23:59.257Z,979.11
2022-08-20T12:24:59.237Z,979.12
2022-08-20T12:26:01.635Z,979.08
2022-08-20T12:26:59.290Z,979.12
2022-08-20T12:27:59.266Z,979.06